Airfield :
LOGIN :

Register | Disclaimer

   EN    FR    IT 

 










Legend :    VFR   Marginal VFR   IFR   Intensive IFR   Very Intensive IFR
Visi :
Ceiling :
>= 8 km
>= 3000ft
5 to 8 km
1000 to 3000 ft
1500m to 5 km
500 to 1000 ft
800 to 1500m
200 to 500 ft
< 800m
< 200 ft
Symbols :   Thunderstorms  Fog  Heavy snow  Heavy precipitations  Wind > 20 kt
SIGMETs :     Misc.  Thunderstorms  Icing  Turbulence  Mountain Waves  Volcanic Ashes






- Airport Elevation : 1475 ft


LSZC - Buochs Stans

CURRENT METAR :
  • 261050Z 24002KT 1500 BR OVC002 M01/M01 Q1032

EXPIRED METARs :
  • 261020Z 23004KT 1000 FZFG VV002 M02/M02 Q1033
  • 260950Z 22004KT 1000 FZFG VV002 M02/M02 Q1032
  • 260920Z 20003KT 0350 FZFG VV001 M01/M02 Q1032
  • 260850Z AUTO VRB02KT 0200 FZFG VV001 M02/M02 Q1032
  • 260820Z AUTO VRB02KT 0350 FZFG VV001 M02/M02 Q1032

TAF TAF LSZC
Valid from the 26 at 09:00 until the 26 at 18:00 UTC


260825Z 2609/2618 21004KT 0300 FZFG VV001
BECMG 2609/2611 1500 BR BKN003
PROB30 2613/2615 3000 BKN012



MET'MAP, your aeronautical weather chart ! - Copyright ORBIFLY December 2007 - Disclaimer

ORBIFLY MET'MAP TEAM :

Programming & Development : Alexandra Zaïnal
Original concept : Baudouin d'Aumeries
Technical & hardware support : Manuel Goepfert
Assistance : Marc-Olivier Méhu

Contact : metmap@orbifly.com




SOURCES & CREDITS :

   NOAA